sensor_id;sensor_type;location;lat;lon;timestamp;temperature;humidity
71039;SHT30;58692;43.212;27.908;2023-07-13T00:00:17;24.27;95.18
71039;SHT30;58692;43.212;27.908;2023-07-13T00:02:43;24.33;94.92
71039;SHT30;58692;43.212;27.908;2023-07-13T00:05:09;24.25;94.93
71039;SHT30;58692;43.212;27.908;2023-07-13T00:07:35;24.27;94.81
71039;SHT30;58692;43.212;27.908;2023-07-13T00:10:02;24.28;94.89
71039;SHT30;58692;43.212;27.908;2023-07-13T00:12:31;24.30;94.43
71039;SHT30;58692;43.212;27.908;2023-07-13T00:14:58;24.33;94.46
71039;SHT30;58692;43.212;27.908;2023-07-13T00:17:24;24.28;94.72
71039;SHT30;58692;43.212;27.908;2023-07-13T00:19:50;24.31;94.74
71039;SHT30;58692;43.212;27.908;2023-07-13T00:22:15;24.30;94.89
71039;SHT30;58692;43.212;27.908;2023-07-13T00:24:43;24.37;94.61
71039;SHT30;58692;43.212;27.908;2023-07-13T00:27:09;24.40;94.48
71039;SHT30;58692;43.212;27.908;2023-07-13T00:29:35;24.27;95.06
71039;SHT30;58692;43.212;27.908;2023-07-13T00:32:03;24.28;94.97
71039;SHT30;58692;43.212;27.908;2023-07-13T00:34:29;24.34;94.76
71039;SHT30;58692;43.212;27.908;2023-07-13T00:36:54;24.35;94.88
71039;SHT30;58692;43.212;27.908;2023-07-13T00:39:20;24.30;95.12
71039;SHT30;58692;43.212;27.908;2023-07-13T00:41:46;24.31;95.20
71039;SHT30;58692;43.212;27.908;2023-07-13T00:44:16;24.30;95.14
71039;SHT30;58692;43.212;27.908;2023-07-13T00:46:43;24.21;95.51
71039;SHT30;58692;43.212;27.908;2023-07-13T00:49:12;24.25;95.35
71039;SHT30;58692;43.212;27.908;2023-07-13T00:51:47;24.31;95.26
71039;SHT30;58692;43.212;27.908;2023-07-13T00:54:16;24.17;95.76
71039;SHT30;58692;43.212;27.908;2023-07-13T00:56:45;24.17;95.72
71039;SHT30;58692;43.212;27.908;2023-07-13T00:59:12;24.18;95.79
71039;SHT30;58692;43.212;27.908;2023-07-13T01:01:38;24.23;95.70
71039;SHT30;58692;43.212;27.908;2023-07-13T01:04:04;24.27;95.57
71039;SHT30;58692;43.212;27.908;2023-07-13T01:06:34;24.24;95.53
71039;SHT30;58692;43.212;27.908;2023-07-13T01:09:01;24.27;95.60
71039;SHT30;58692;43.212;27.908;2023-07-13T01:11:27;24.24;95.74
71039;SHT30;58692;43.212;27.908;2023-07-13T01:13:52;24.14;95.99
71039;SHT30;58692;43.212;27.908;2023-07-13T01:16:27;24.14;96.15
71039;SHT30;58692;43.212;27.908;2023-07-13T01:18:53;24.21;95.93
71039;SHT30;58692;43.212;27.908;2023-07-13T01:21:18;24.18;95.88
71039;SHT30;58692;43.212;27.908;2023-07-13T01:23:44;24.10;96.08
71039;SHT30;58692;43.212;27.908;2023-07-13T01:26:10;24.16;95.89
71039;SHT30;58692;43.212;27.908;2023-07-13T01:28:35;24.17;95.98
71039;SHT30;58692;43.212;27.908;2023-07-13T01:31:02;24.10;96.02
71039;SHT30;58692;43.212;27.908;2023-07-13T01:33:28;24.12;95.94
71039;SHT30;58692;43.212;27.908;2023-07-13T01:35:54;24.14;95.83
71039;SHT30;58692;43.212;27.908;2023-07-13T01:38:22;24.21;95.75
71039;SHT30;58692;43.212;27.908;2023-07-13T01:40:49;24.14;95.90
71039;SHT30;58692;43.212;27.908;2023-07-13T01:43:15;24.17;95.89
71039;SHT30;58692;43.212;27.908;2023-07-13T01:45:40;24.16;95.91
71039;SHT30;58692;43.212;27.908;2023-07-13T01:48:06;24.23;95.75
71039;SHT30;58692;43.212;27.908;2023-07-13T01:50:33;24.20;95.85
71039;SHT30;58692;43.212;27.908;2023-07-13T01:52:58;24.12;95.95
71039;SHT30;58692;43.212;27.908;2023-07-13T01:55:24;24.17;95.89
71039;SHT30;58692;43.212;27.908;2023-07-13T01:57:49;24.20;95.89
71039;SHT30;58692;43.212;27.908;2023-07-13T02:00:15;24.16;95.88
71039;SHT30;58692;43.212;27.908;2023-07-13T02:02:41;24.18;95.82
71039;SHT30;58692;43.212;27.908;2023-07-13T02:05:07;24.24;95.57
71039;SHT30;58692;43.212;27.908;2023-07-13T02:07:33;24.25;95.57
71039;SHT30;58692;43.212;27.908;2023-07-13T02:09:58;24.31;95.39
71039;SHT30;58692;43.212;27.908;2023-07-13T02:12:24;24.25;95.52
71039;SHT30;58692;43.212;27.908;2023-07-13T02:14:49;24.18;95.86
71039;SHT30;58692;43.212;27.908;2023-07-13T02:17:15;24.24;95.63
71039;SHT30;58692;43.212;27.908;2023-07-13T02:19:40;24.25;95.49
71039;SHT30;58692;43.212;27.908;2023-07-13T02:22:06;24.25;95.48
71039;SHT30;58692;43.212;27.908;2023-07-13T02:24:32;24.20;95.70
71039;SHT30;58692;43.212;27.908;2023-07-13T02:26:57;24.27;95.42
71039;SHT30;58692;43.212;27.908;2023-07-13T02:29:23;24.33;95.15
71039;SHT30;58692;43.212;27.908;2023-07-13T02:31:48;24.33;95.05
71039;SHT30;58692;43.212;27.908;2023-07-13T02:34:14;24.35;95.00
71039;SHT30;58692;43.212;27.908;2023-07-13T02:36:39;24.37;94.94
71039;SHT30;58692;43.212;27.908;2023-07-13T02:39:06;24.43;94.68
71039;SHT30;58692;43.212;27.908;2023-07-13T02:41:32;24.45;94.34
71039;SHT30;58692;43.212;27.908;2023-07-13T02:43:58;24.47;94.36
71039;SHT30;58692;43.212;27.908;2023-07-13T02:46:30;24.47;94.31
71039;SHT30;58692;43.212;27.908;2023-07-13T02:48:56;24.50;94.17
71039;SHT30;58692;43.212;27.908;2023-07-13T02:51:22;24.51;94.19
71039;SHT30;58692;43.212;27.908;2023-07-13T02:53:47;24.57;93.98
71039;SHT30;58692;43.212;27.908;2023-07-13T02:56:13;24.58;93.84
71039;SHT30;58692;43.212;27.908;2023-07-13T02:58:38;24.64;93.70
71039;SHT30;58692;43.212;27.908;2023-07-13T03:01:11;24.65;93.52
71039;SHT30;58692;43.212;27.908;2023-07-13T03:03:37;24.68;93.35
71039;SHT30;58692;43.212;27.908;2023-07-13T03:06:05;24.63;93.55
71039;SHT30;58692;43.212;27.908;2023-07-13T03:08:33;24.64;92.88
71039;SHT30;58692;43.212;27.908;2023-07-13T03:11:01;24.63;91.91
71039;SHT30;58692;43.212;27.908;2023-07-13T03:13:27;24.58;90.87
71039;SHT30;58692;43.212;27.908;2023-07-13T03:15:53;24.38;90.32
71039;SHT30;58692;43.212;27.908;2023-07-13T03:18:18;24.45;90.05
71039;SHT30;58692;43.212;27.908;2023-07-13T03:20:43;24.43;89.83
71039;SHT30;58692;43.212;27.908;2023-07-13T03:23:09;24.37;89.49
71039;SHT30;58692;43.212;27.908;2023-07-13T03:25:34;24.33;89.68
71039;SHT30;58692;43.212;27.908;2023-07-13T03:28:00;24.31;89.44
71039;SHT30;58692;43.212;27.908;2023-07-13T03:30:25;24.34;89.15
71039;SHT30;58692;43.212;27.908;2023-07-13T03:32:51;24.35;89.21
71039;SHT30;58692;43.212;27.908;2023-07-13T03:35:16;24.35;88.86
71039;SHT30;58692;43.212;27.908;2023-07-13T03:37:42;24.44;88.60
71039;SHT30;58692;43.212;27.908;2023-07-13T03:40:08;24.54;88.12
71039;SHT30;58692;43.212;27.908;2023-07-13T03:42:35;24.47;88.32
71039;SHT30;58692;43.212;27.908;2023-07-13T03:45:01;24.55;88.06
71039;SHT30;58692;43.212;27.908;2023-07-13T03:47:26;24.74;87.60
71039;SHT30;58692;43.212;27.908;2023-07-13T03:49:52;24.95;86.71
71039;SHT30;58692;43.212;27.908;2023-07-13T03:52:18;25.04;86.54
71039;SHT30;58692;43.212;27.908;2023-07-13T03:54:44;25.15;85.95
71039;SHT30;58692;43.212;27.908;2023-07-13T03:57:09;25.29;85.48
71039;SHT30;58692;43.212;27.908;2023-07-13T03:59:35;25.29;85.63
71039;SHT30;58692;43.212;27.908;2023-07-13T04:02:01;25.47;85.03
71039;SHT30;58692;43.212;27.908;2023-07-13T04:04:29;25.40;84.82
71039;SHT30;58692;43.212;27.908;2023-07-13T04:06:56;25.51;84.23
71039;SHT30;58692;43.212;27.908;2023-07-13T04:09:24;25.71;83.47
71039;SHT30;58692;43.212;27.908;2023-07-13T04:11:49;25.91;83.03
71039;SHT30;58692;43.212;27.908;2023-07-13T04:14:15;25.84;83.26
71039;SHT30;58692;43.212;27.908;2023-07-13T04:16:41;26.07;82.45
71039;SHT30;58692;43.212;27.908;2023-07-13T04:19:07;26.18;82.21
71039;SHT30;58692;43.212;27.908;2023-07-13T04:21:33;26.45;81.37
71039;SHT30;58692;43.212;27.908;2023-07-13T04:23:59;26.63;80.77
71039;SHT30;58692;43.212;27.908;2023-07-13T04:26:24;26.72;80.61
71039;SHT30;58692;43.212;27.908;2023-07-13T04:28:50;26.85;80.10
71039;SHT30;58692;43.212;27.908;2023-07-13T04:31:17;26.78;80.57
71039;SHT30;58692;43.212;27.908;2023-07-13T04:33:42;27.10;79.88
71039;SHT30;58692;43.212;27.908;2023-07-13T04:36:08;27.37;79.15
71039;SHT30;58692;43.212;27.908;2023-07-13T04:38:35;27.51;78.66
71039;SHT30;58692;43.212;27.908;2023-07-13T04:41:02;27.34;78.77
71039;SHT30;58692;43.212;27.908;2023-07-13T04:43:29;27.76;77.59
71039;SHT30;58692;43.212;27.908;2023-07-13T04:45:55;27.98;77.19
71039;SHT30;58692;43.212;27.908;2023-07-13T04:48:21;28.00;77.31
71039;SHT30;58692;43.212;27.908;2023-07-13T04:50:47;28.11;77.36
71039;SHT30;58692;43.212;27.908;2023-07-13T04:53:14;28.36;76.72
71039;SHT30;58692;43.212;27.908;2023-07-13T04:55:39;28.22;77.24
71039;SHT30;58692;43.212;27.908;2023-07-13T04:58:06;28.32;76.86
71039;SHT30;58692;43.212;27.908;2023-07-13T05:00:31;28.59;76.09
71039;SHT30;58692;43.212;27.908;2023-07-13T05:02:58;28.97;74.95
71039;SHT30;58692;43.212;27.908;2023-07-13T05:05:25;29.06;74.82
71039;SHT30;58692;43.212;27.908;2023-07-13T05:07:51;29.40;73.87
71039;SHT30;58692;43.212;27.908;2023-07-13T05:10:16;29.46;73.47
71039;SHT30;58692;43.212;27.908;2023-07-13T05:12:42;29.31;73.37
71039;SHT30;58692;43.212;27.908;2023-07-13T05:15:08;29.95;72.04
71039;SHT30;58692;43.212;27.908;2023-07-13T05:17:33;30.21;71.08
71039;SHT30;58692;43.212;27.908;2023-07-13T05:19:59;30.09;70.57
71039;SHT30;58692;43.212;27.908;2023-07-13T05:22:24;30.01;70.57
71039;SHT30;58692;43.212;27.908;2023-07-13T05:24:50;30.15;70.59
71039;SHT30;58692;43.212;27.908;2023-07-13T05:27:15;30.23;70.06
71039;SHT30;58692;43.212;27.908;2023-07-13T05:29:41;30.13;70.39
71039;SHT30;58692;43.212;27.908;2023-07-13T05:32:07;30.26;69.63
71039;SHT30;58692;43.212;27.908;2023-07-13T05:34:32;29.92;70.46
71039;SHT30;58692;43.212;27.908;2023-07-13T05:36:58;30.36;69.52
71039;SHT30;58692;43.212;27.908;2023-07-13T05:39:23;30.13;69.92
71039;SHT30;58692;43.212;27.908;2023-07-13T05:41:49;30.46;69.59
71039;SHT30;58692;43.212;27.908;2023-07-13T05:44:15;30.74;69.13
71039;SHT30;58692;43.212;27.908;2023-07-13T05:46:40;30.72;68.31
71039;SHT30;58692;43.212;27.908;2023-07-13T05:49:06;30.53;68.41
71039;SHT30;58692;43.212;27.908;2023-07-13T05:51:31;30.74;67.25
71039;SHT30;58692;43.212;27.908;2023-07-13T05:53:57;30.98;66.00
71039;SHT30;58692;43.212;27.908;2023-07-13T05:56:23;31.26;65.09
71039;SHT30;58692;43.212;27.908;2023-07-13T05:58:49;31.65;64.40
71039;SHT30;58692;43.212;27.908;2023-07-13T06:01:15;31.96;63.13
71039;SHT30;58692;43.212;27.908;2023-07-13T06:03:41;32.23;61.55
71039;SHT30;58692;43.212;27.908;2023-07-13T06:06:08;32.23;61.28
71039;SHT30;58692;43.212;27.908;2023-07-13T06:08:34;32.43;59.67
71039;SHT30;58692;43.212;27.908;2023-07-13T06:11:19;32.43;58.27
71039;SHT30;58692;43.212;27.908;2023-07-13T06:13:45;32.29;58.75
71039;SHT30;58692;43.212;27.908;2023-07-13T06:16:12;32.22;58.51
71039;SHT30;58692;43.212;27.908;2023-07-13T06:18:39;31.98;57.73
71039;SHT30;58692;43.212;27.908;2023-07-13T06:21:08;31.95;58.76
71039;SHT30;58692;43.212;27.908;2023-07-13T06:23:33;32.60;57.03
71039;SHT30;58692;43.212;27.908;2023-07-13T06:25:59;32.91;56.11
71039;SHT30;58692;43.212;27.908;2023-07-13T06:28:24;32.23;56.82
71039;SHT30;58692;43.212;27.908;2023-07-13T06:30:50;32.33;56.96
71039;SHT30;58692;43.212;27.908;2023-07-13T06:33:16;32.79;55.83
71039;SHT30;58692;43.212;27.908;2023-07-13T06:35:42;32.92;55.79
71039;SHT30;58692;43.212;27.908;2023-07-13T06:38:08;33.31;55.09
71039;SHT30;58692;43.212;27.908;2023-07-13T06:40:33;33.07;55.11
71039;SHT30;58692;43.212;27.908;2023-07-13T06:42:59;33.57;54.46
71039;SHT30;58692;43.212;27.908;2023-07-13T06:45:25;34.26;53.19
71039;SHT30;58692;43.212;27.908;2023-07-13T06:47:50;33.83;53.69
71039;SHT30;58692;43.212;27.908;2023-07-13T06:50:16;34.37;53.12
71039;SHT30;58692;43.212;27.908;2023-07-13T06:52:42;34.26;53.41
71039;SHT30;58692;43.212;27.908;2023-07-13T06:55:08;33.61;54.13
71039;SHT30;58692;43.212;27.908;2023-07-13T06:57:34;33.40;54.92
71039;SHT30;58692;43.212;27.908;2023-07-13T07:00:00;33.34;55.05
71039;SHT30;58692;43.212;27.908;2023-07-13T07:02:26;33.20;55.56
71039;SHT30;58692;43.212;27.908;2023-07-13T07:04:52;33.27;59.25
71039;SHT30;58692;43.212;27.908;2023-07-13T07:07:19;33.00;61.56
71039;SHT30;58692;43.212;27.908;2023-07-13T07:09:45;33.20;61.16
71039;SHT30;58692;43.212;27.908;2023-07-13T07:12:10;33.03;61.58
71039;SHT30;58692;43.212;27.908;2023-07-13T07:14:36;33.15;61.60
71039;SHT30;58692;43.212;27.908;2023-07-13T07:17:01;33.03;61.83
71039;SHT30;58692;43.212;27.908;2023-07-13T07:19:29;33.08;61.46
71039;SHT30;58692;43.212;27.908;2023-07-13T07:21:55;32.96;61.91
71039;SHT30;58692;43.212;27.908;2023-07-13T07:24:20;32.90;62.55
71039;SHT30;58692;43.212;27.908;2023-07-13T07:26:46;33.03;62.88
71039;SHT30;58692;43.212;27.908;2023-07-13T07:29:11;32.83;63.01
71039;SHT30;58692;43.212;27.908;2023-07-13T07:31:36;33.18;63.04
71039;SHT30;58692;43.212;27.908;2023-07-13T07:34:02;33.54;62.38
71039;SHT30;58692;43.212;27.908;2023-07-13T07:36:28;33.65;61.39
71039;SHT30;58692;43.212;27.908;2023-07-13T07:38:53;33.52;61.43
71039;SHT30;58692;43.212;27.908;2023-07-13T07:41:19;33.54;61.55
71039;SHT30;58692;43.212;27.908;2023-07-13T07:43:45;33.48;61.72
71039;SHT30;58692;43.212;27.908;2023-07-13T07:46:10;33.31;61.97
71039;SHT30;58692;43.212;27.908;2023-07-13T07:48:36;32.69;63.27
71039;SHT30;58692;43.212;27.908;2023-07-13T07:51:09;32.97;63.39
71039;SHT30;58692;43.212;27.908;2023-07-13T07:53:34;33.00;63.35
71039;SHT30;58692;43.212;27.908;2023-07-13T07:56:00;33.10;63.89
71039;SHT30;58692;43.212;27.908;2023-07-13T07:58:25;32.55;63.52
71039;SHT30;58692;43.212;27.908;2023-07-13T08:00:51;32.59;64.25
71039;SHT30;58692;43.212;27.908;2023-07-13T08:03:16;32.63;64.24
71039;SHT30;58692;43.212;27.908;2023-07-13T08:05:42;32.76;64.05
71039;SHT30;58692;43.212;27.908;2023-07-13T08:08:08;32.84;63.91
71039;SHT30;58692;43.212;27.908;2023-07-13T08:10:35;33.35;63.04
71039;SHT30;58692;43.212;27.908;2023-07-13T08:13:01;33.14;62.34
71039;SHT30;58692;43.212;27.908;2023-07-13T08:15:30;33.15;63.02
71039;SHT30;58692;43.212;27.908;2023-07-13T08:17:56;32.84;63.69
71039;SHT30;58692;43.212;27.908;2023-07-13T08:20:22;32.70;63.71
71039;SHT30;58692;43.212;27.908;2023-07-13T08:22:52;33.14;62.88
71039;SHT30;58692;43.212;27.908;2023-07-13T08:25:18;32.44;64.72
71039;SHT30;58692;43.212;27.908;2023-07-13T08:27:46;32.40;64.93
71039;SHT30;58692;43.212;27.908;2023-07-13T08:30:12;32.28;65.47
71039;SHT30;58692;43.212;27.908;2023-07-13T08:32:38;32.40;64.97
71039;SHT30;58692;43.212;27.908;2023-07-13T08:35:05;32.04;61.25
71039;SHT30;58692;43.212;27.908;2023-07-13T08:37:31;32.18;63.00
71039;SHT30;58692;43.212;27.908;2023-07-13T08:39:57;32.01;64.90
71039;SHT30;58692;43.212;27.908;2023-07-13T08:42:46;31.96;62.37
71039;SHT30;58692;43.212;27.908;2023-07-13T08:45:21;32.35;61.90
71039;SHT30;58692;43.212;27.908;2023-07-13T08:50:21;32.71;59.81
71039;SHT30;58692;43.212;27.908;2023-07-13T08:52:48;33.10;59.58
71039;SHT30;58692;43.212;27.908;2023-07-13T08:55:18;33.47;58.98
71039;SHT30;58692;43.212;27.908;2023-07-13T08:57:51;33.48;58.81
71039;SHT30;58692;43.212;27.908;2023-07-13T09:00:18;33.11;58.54
71039;SHT30;58692;43.212;27.908;2023-07-13T09:02:55;33.27;57.64
71039;SHT30;58692;43.212;27.908;2023-07-13T09:05:38;33.04;58.70
71039;SHT30;58692;43.212;27.908;2023-07-13T09:13:33;32.90;58.05
71039;SHT30;58692;43.212;27.908;2023-07-13T09:16:00;32.83;58.28
71039;SHT30;58692;43.212;27.908;2023-07-13T09:18:34;33.17;56.12
71039;SHT30;58692;43.212;27.908;2023-07-13T09:21:09;33.14;56.42
71039;SHT30;58692;43.212;27.908;2023-07-13T09:23:36;33.25;53.83
71039;SHT30;58692;43.212;27.908;2023-07-13T09:26:06;33.28;54.31
71039;SHT30;58692;43.212;27.908;2023-07-13T09:28:42;33.08;55.83
71039;SHT30;58692;43.212;27.908;2023-07-13T09:31:15;32.97;55.79
71039;SHT30;58692;43.212;27.908;2023-07-13T09:33:41;33.52;55.48
71039;SHT30;58692;43.212;27.908;2023-07-13T09:36:21;33.21;56.17
71039;SHT30;58692;43.212;27.908;2023-07-13T09:38:58;33.17;56.28
71039;SHT30;58692;43.212;27.908;2023-07-13T09:41:35;33.73;55.79
71039;SHT30;58692;43.212;27.908;2023-07-13T09:44:12;33.92;54.71
71039;SHT30;58692;43.212;27.908;2023-07-13T09:46:43;33.69;55.42
71039;SHT30;58692;43.212;27.908;2023-07-13T09:49:10;33.42;57.60
71039;SHT30;58692;43.212;27.908;2023-07-13T09:51:37;32.73;58.95
71039;SHT30;58692;43.212;27.908;2023-07-13T09:54:04;32.91;60.59
71039;SHT30;58692;43.212;27.908;2023-07-13T09:56:30;32.71;61.10
71039;SHT30;58692;43.212;27.908;2023-07-13T09:58:56;32.96;59.40
71039;SHT30;58692;43.212;27.908;2023-07-13T10:01:38;33.15;59.11
71039;SHT30;58692;43.212;27.908;2023-07-13T10:04:12;33.08;57.01
71039;SHT30;58692;43.212;27.908;2023-07-13T10:06:39;32.96;58.63
71039;SHT30;58692;43.212;27.908;2023-07-13T10:09:08;33.14;58.16
71039;SHT30;58692;43.212;27.908;2023-07-13T10:11:35;33.50;58.34
71039;SHT30;58692;43.212;27.908;2023-07-13T10:14:09;33.86;57.59
71039;SHT30;58692;43.212;27.908;2023-07-13T10:16:35;33.69;58.39
71039;SHT30;58692;43.212;27.908;2023-07-13T10:19:07;33.21;59.36
71039;SHT30;58692;43.212;27.908;2023-07-13T10:21:49;32.94;61.53
71039;SHT30;58692;43.212;27.908;2023-07-13T10:24:20;33.07;60.22
71039;SHT30;58692;43.212;27.908;2023-07-13T10:26:50;33.58;59.81
71039;SHT30;58692;43.212;27.908;2023-07-13T10:29:17;33.31;60.26
71039;SHT30;58692;43.212;27.908;2023-07-13T10:31:44;33.38;60.32
71039;SHT30;58692;43.212;27.908;2023-07-13T10:34:11;33.69;60.05
71039;SHT30;58692;43.212;27.908;2023-07-13T10:36:43;33.47;59.85
71039;SHT30;58692;43.212;27.908;2023-07-13T10:39:16;33.81;58.90
71039;SHT30;58692;43.212;27.908;2023-07-13T10:41:44;34.08;58.43
71039;SHT30;58692;43.212;27.908;2023-07-13T10:44:18;34.12;58.11
71039;SHT30;58692;43.212;27.908;2023-07-13T10:46:45;34.31;58.21
71039;SHT30;58692;43.212;27.908;2023-07-13T10:49:11;33.68;58.12
71039;SHT30;58692;43.212;27.908;2023-07-13T10:51:37;33.85;59.07
71039;SHT30;58692;43.212;27.908;2023-07-13T10:54:18;33.81;58.56
71039;SHT30;58692;43.212;27.908;2023-07-13T10:56:45;34.08;58.48
71039;SHT30;58692;43.212;27.908;2023-07-13T10:59:17;34.09;58.26
71039;SHT30;58692;43.212;27.908;2023-07-13T11:01:56;34.39;57.74
71039;SHT30;58692;43.212;27.908;2023-07-13T11:04:24;34.87;57.07
71039;SHT30;58692;43.212;27.908;2023-07-13T11:06:56;34.32;56.73
71039;SHT30;58692;43.212;27.908;2023-07-13T11:09:38;34.52;57.85
71039;SHT30;58692;43.212;27.908;2023-07-13T11:14:42;33.47;61.20
71039;SHT30;58692;43.212;27.908;2023-07-13T11:17:36;33.44;61.65
71039;SHT30;58692;43.212;27.908;2023-07-13T11:20:20;33.11;62.27
71039;SHT30;58692;43.212;27.908;2023-07-13T11:22:53;33.50;61.82
71039;SHT30;58692;43.212;27.908;2023-07-13T11:25:35;33.59;60.82
71039;SHT30;58692;43.212;27.908;2023-07-13T11:28:15;34.27;59.32
71039;SHT30;58692;43.212;27.908;2023-07-13T11:33:23;34.31;57.79
71039;SHT30;58692;43.212;27.908;2023-07-13T11:35:58;33.89;58.51
71039;SHT30;58692;43.212;27.908;2023-07-13T11:41:02;33.45;59.22
71039;SHT30;58692;43.212;27.908;2023-07-13T11:43:29;33.63;58.32
71039;SHT30;58692;43.212;27.908;2023-07-13T11:45:55;33.51;59.12
71039;SHT30;58692;43.212;27.908;2023-07-13T11:48:22;33.63;59.39
71039;SHT30;58692;43.212;27.908;2023-07-13T11:50:51;32.92;60.92
71039;SHT30;58692;43.212;27.908;2023-07-13T11:53:18;32.76;60.58
71039;SHT30;58692;43.212;27.908;2023-07-13T11:55:44;32.88;61.06
71039;SHT30;58692;43.212;27.908;2023-07-13T11:58:14;32.90;61.22
71039;SHT30;58692;43.212;27.908;2023-07-13T12:00:42;33.01;60.95
71039;SHT30;58692;43.212;27.908;2023-07-13T12:03:10;32.70;61.88
71039;SHT30;58692;43.212;27.908;2023-07-13T12:05:36;32.94;61.69
71039;SHT30;58692;43.212;27.908;2023-07-13T12:08:08;32.23;63.07
71039;SHT30;58692;43.212;27.908;2023-07-13T12:10:36;31.61;65.28
71039;SHT30;58692;43.212;27.908;2023-07-13T12:13:04;31.44;65.59
71039;SHT30;58692;43.212;27.908;2023-07-13T12:15:43;31.52;65.80
71039;SHT30;58692;43.212;27.908;2023-07-13T12:18:19;31.54;66.13
71039;SHT30;58692;43.212;27.908;2023-07-13T12:20:46;31.06;67.51
71039;SHT30;58692;43.212;27.908;2023-07-13T12:25:54;30.63;67.07
71039;SHT30;58692;43.212;27.908;2023-07-13T12:28:21;30.51;69.10
71039;SHT30;58692;43.212;27.908;2023-07-13T12:30:49;30.51;68.74
71039;SHT30;58692;43.212;27.908;2023-07-13T12:33:16;30.56;69.01
71039;SHT30;58692;43.212;27.908;2023-07-13T12:35:47;30.42;68.70
71039;SHT30;58692;43.212;27.908;2023-07-13T12:38:13;30.21;69.75
71039;SHT30;58692;43.212;27.908;2023-07-13T12:40:39;30.32;69.34
71039;SHT30;58692;43.212;27.908;2023-07-13T12:43:11;30.49;69.19
71039;SHT30;58692;43.212;27.908;2023-07-13T12:45:38;30.51;69.27
71039;SHT30;58692;43.212;27.908;2023-07-13T12:48:13;30.21;69.90
71039;SHT30;58692;43.212;27.908;2023-07-13T12:50:42;30.37;69.61
71039;SHT30;58692;43.212;27.908;2023-07-13T12:53:13;30.08;69.52
71039;SHT30;58692;43.212;27.908;2023-07-13T12:55:43;30.13;70.25
71039;SHT30;58692;43.212;27.908;2023-07-13T12:58:18;30.21;70.66
71039;SHT30;58692;43.212;27.908;2023-07-13T13:00:49;30.35;70.27
71039;SHT30;58692;43.212;27.908;2023-07-13T13:03:33;30.19;71.10
71039;SHT30;58692;43.212;27.908;2023-07-13T13:06:04;30.36;70.36
71039;SHT30;58692;43.212;27.908;2023-07-13T13:08:32;30.33;70.40
71039;SHT30;58692;43.212;27.908;2023-07-13T13:10:58;30.22;70.37
71039;SHT30;58692;43.212;27.908;2023-07-13T13:13:23;30.49;70.21
71039;SHT30;58692;43.212;27.908;2023-07-13T13:15:50;30.53;69.41
71039;SHT30;58692;43.212;27.908;2023-07-13T13:18:18;30.62;69.27
71039;SHT30;58692;43.212;27.908;2023-07-13T13:20:44;30.64;69.17
71039;SHT30;58692;43.212;27.908;2023-07-13T13:23:15;30.64;68.78
71039;SHT30;58692;43.212;27.908;2023-07-13T13:25:44;30.40;69.36
71039;SHT30;58692;43.212;27.908;2023-07-13T13:28:14;30.32;70.24
71039;SHT30;58692;43.212;27.908;2023-07-13T13:30:42;30.11;70.89
71039;SHT30;58692;43.212;27.908;2023-07-13T13:33:11;30.15;70.85
71039;SHT30;58692;43.212;27.908;2023-07-13T13:35:37;30.06;71.06
71039;SHT30;58692;43.212;27.908;2023-07-13T13:38:09;30.36;70.50
71039;SHT30;58692;43.212;27.908;2023-07-13T13:40:35;30.33;70.76
71039;SHT30;58692;43.212;27.908;2023-07-13T13:43:01;30.49;70.12
71039;SHT30;58692;43.212;27.908;2023-07-13T13:45:26;30.49;69.92
71039;SHT30;58692;43.212;27.908;2023-07-13T13:47:52;30.51;69.73
71039;SHT30;58692;43.212;27.908;2023-07-13T13:50:21;30.35;70.06
71039;SHT30;58692;43.212;27.908;2023-07-13T13:52:48;30.39;70.20
71039;SHT30;58692;43.212;27.908;2023-07-13T13:55:14;30.56;69.47
71039;SHT30;58692;43.212;27.908;2023-07-13T13:57:40;30.23;70.17
71039;SHT30;58692;43.212;27.908;2023-07-13T14:00:09;30.09;70.23
71039;SHT30;58692;43.212;27.908;2023-07-13T14:02:37;30.22;70.41
71039;SHT30;58692;43.212;27.908;2023-07-13T14:05:03;30.28;69.32
71039;SHT30;58692;43.212;27.908;2023-07-13T14:07:30;30.09;70.00
71039;SHT30;58692;43.212;27.908;2023-07-13T14:09:57;30.06;70.41
71039;SHT30;58692;43.212;27.908;2023-07-13T14:12:23;30.19;70.29
71039;SHT30;58692;43.212;27.908;2023-07-13T14:14:51;30.01;70.29
71039;SHT30;58692;43.212;27.908;2023-07-13T14:17:22;30.08;70.49
71039;SHT30;58692;43.212;27.908;2023-07-13T14:19:51;29.98;70.66
71039;SHT30;58692;43.212;27.908;2023-07-13T14:22:18;30.05;70.74
71039;SHT30;58692;43.212;27.908;2023-07-13T14:24:44;29.88;70.97
71039;SHT30;58692;43.212;27.908;2023-07-13T14:27:11;29.93;71.16
71039;SHT30;58692;43.212;27.908;2023-07-13T14:29:37;30.02;70.90
71039;SHT30;58692;43.212;27.908;2023-07-13T14:32:03;29.74;70.64
71039;SHT30;58692;43.212;27.908;2023-07-13T14:34:30;29.72;71.23
71039;SHT30;58692;43.212;27.908;2023-07-13T14:36:55;29.72;70.55
71039;SHT30;58692;43.212;27.908;2023-07-13T14:39:23;29.88;70.69
71039;SHT30;58692;43.212;27.908;2023-07-13T14:41:51;29.89;70.00
71039;SHT30;58692;43.212;27.908;2023-07-13T14:44:24;30.05;69.83
71039;SHT30;58692;43.212;27.908;2023-07-13T14:46:51;30.13;69.50
71039;SHT30;58692;43.212;27.908;2023-07-13T14:51:59;30.15;68.89
71039;SHT30;58692;43.212;27.908;2023-07-13T14:54:26;29.95;69.38
71039;SHT30;58692;43.212;27.908;2023-07-13T14:56:51;29.86;69.14
71039;SHT30;58692;43.212;27.908;2023-07-13T14:59:17;29.89;69.08
71039;SHT30;58692;43.212;27.908;2023-07-13T15:01:45;29.89;69.34
71039;SHT30;58692;43.212;27.908;2023-07-13T15:04:11;29.89;69.58
71039;SHT30;58692;43.212;27.908;2023-07-13T15:07:00;29.95;69.38
71039;SHT30;58692;43.212;27.908;2023-07-13T15:09:27;29.98;69.63
71039;SHT30;58692;43.212;27.908;2023-07-13T15:11:55;29.77;69.73
71039;SHT30;58692;43.212;27.908;2023-07-13T15:14:21;29.82;69.06
71039;SHT30;58692;43.212;27.908;2023-07-13T15:16:49;30.04;69.07
71039;SHT30;58692;43.212;27.908;2023-07-13T15:19:16;29.89;68.92
71039;SHT30;58692;43.212;27.908;2023-07-13T15:21:43;29.80;69.29
71039;SHT30;58692;43.212;27.908;2023-07-13T15:24:10;29.61;69.97
71039;SHT30;58692;43.212;27.908;2023-07-13T15:26:36;29.61;70.35
71039;SHT30;58692;43.212;27.908;2023-07-13T15:29:02;29.51;70.70
71039;SHT30;58692;43.212;27.908;2023-07-13T15:31:28;29.33;71.30
71039;SHT30;58692;43.212;27.908;2023-07-13T15:33:55;29.38;71.27
71039;SHT30;58692;43.212;27.908;2023-07-13T15:36:23;29.50;71.29
71039;SHT30;58692;43.212;27.908;2023-07-13T15:38:52;29.60;71.06